createdAt,value
2019-04-29T00:00:09.517Z,0.0000
2019-04-29T00:02:13.119Z,0.0000
2019-04-29T00:04:16.546Z,0.0000
2019-04-29T00:06:19.988Z,0.0000
2019-04-29T00:08:23.540Z,0.0000
2019-04-29T00:10:26.983Z,0.0000
2019-04-29T00:12:31.073Z,0.0000
2019-04-29T00:14:34.648Z,0.0000
2019-04-29T00:16:38.110Z,0.0000
2019-04-29T00:18:41.886Z,0.0000
2019-04-29T00:20:45.304Z,0.0000
2019-04-29T00:22:48.742Z,0.0000
2019-04-29T00:24:52.166Z,0.0000
2019-04-29T00:26:54.690Z,0.0000
2019-04-29T00:28:58.878Z,0.0000
2019-04-29T00:31:02.906Z,0.0000
2019-04-29T00:33:06.437Z,0.0000
2019-04-29T00:35:09.850Z,0.0000
2019-04-29T00:37:13.383Z,0.0000
2019-04-29T00:39:15.851Z,0.0000
2019-04-29T00:41:19.721Z,0.0000
2019-04-29T00:43:22.609Z,0.0000
2019-04-29T00:45:26.294Z,0.0000
2019-04-29T00:47:29.948Z,0.0000
2019-04-29T00:49:33.703Z,0.0000
2019-04-29T00:51:37.127Z,0.0000
2019-04-29T00:53:40.562Z,0.0000
2019-04-29T00:55:44.437Z,0.0000
2019-04-29T00:57:48.280Z,0.0000
2019-04-29T00:59:51.770Z,0.0000
2019-04-29T01:01:55.202Z,0.0000
2019-04-29T01:03:58.955Z,0.0000
2019-04-29T01:06:03.545Z,0.0000
2019-04-29T01:08:07.454Z,0.0000
2019-04-29T01:10:11.380Z,0.0000
2019-04-29T01:12:14.828Z,0.0000
2019-04-29T01:14:18.376Z,0.0000
2019-04-29T01:16:21.805Z,0.0000
2019-04-29T01:18:25.504Z,0.0000
2019-04-29T01:20:28.989Z,0.0000
2019-04-29T01:22:32.561Z,0.0000
2019-04-29T01:24:35.965Z,0.0000
2019-04-29T01:26:39.725Z,0.0000
2019-04-29T01:28:42.851Z,0.0000
2019-04-29T01:30:47.208Z,0.0000
2019-04-29T01:32:50.781Z,0.0000
2019-04-29T01:34:54.334Z,0.0000
2019-04-29T01:36:58.486Z,0.0000
2019-04-29T01:39:01.907Z,0.0000
2019-04-29T01:41:05.850Z,0.0000
2019-04-29T01:43:09.289Z,0.0000
2019-04-29T01:45:12.676Z,0.0000
2019-04-29T01:47:16.863Z,0.0000
2019-04-29T01:49:20.291Z,0.0000
2019-04-29T01:51:23.212Z,0.0000
2019-04-29T01:53:27.193Z,0.0000
2019-04-29T01:55:30.561Z,0.0000
2019-04-29T01:57:34.530Z,0.0000
2019-04-29T01:59:37.071Z,0.0000
2019-04-29T02:01:41.268Z,0.0000
2019-04-29T02:03:45.136Z,0.0000
2019-04-29T02:05:48.888Z,0.0000
2019-04-29T02:07:52.556Z,0.0000
2019-04-29T02:09:55.975Z,0.0000
2019-04-29T02:11:59.658Z,0.0000
2019-04-29T02:14:03.720Z,0.0000
2019-04-29T02:16:07.282Z,0.0000
2019-04-29T02:18:10.730Z,0.0000
2019-04-29T02:20:14.157Z,0.0000
2019-04-29T02:22:17.682Z,0.0000
2019-04-29T02:24:21.249Z,0.0000
2019-04-29T02:26:24.839Z,0.0000
2019-04-29T02:28:28.326Z,0.0000
2019-04-29T02:30:31.826Z,0.0000
2019-04-29T02:32:35.300Z,0.0000
2019-04-29T02:34:38.768Z,0.0000
2019-04-29T02:36:42.203Z,0.0000
2019-04-29T02:38:44.613Z,0.0000
2019-04-29T02:40:48.405Z,0.0000
2019-04-29T02:42:52.266Z,0.0000
2019-04-29T02:44:56.085Z,0.0000
2019-04-29T02:46:59.688Z,0.0000
2019-04-29T02:49:03.235Z,0.0000
2019-04-29T02:51:06.807Z,0.0000
2019-04-29T02:53:10.305Z,0.0000
2019-04-29T02:55:13.756Z,0.0000
2019-04-29T02:57:17.348Z,0.0000
2019-04-29T02:59:20.894Z,0.0000
2019-04-29T03:01:24.453Z,0.0000
2019-04-29T03:03:28.163Z,0.0000
2019-04-29T03:05:31.672Z,0.0000
2019-04-29T03:07:34.089Z,0.0000
2019-04-29T03:09:37.510Z,0.0000
2019-04-29T03:11:40.195Z,0.0000
2019-04-29T03:13:43.602Z,0.0000
2019-04-29T03:15:46.233Z,0.0000
2019-04-29T03:17:49.643Z,0.0000
2019-04-29T03:19:53.270Z,0.0000
2019-04-29T03:21:57.401Z,0.0000
2019-04-29T03:24:00.821Z,0.0000
2019-04-29T03:26:04.229Z,0.0000
2019-04-29T03:28:07.646Z,0.0000
2019-04-29T03:30:11.073Z,0.0000
2019-04-29T03:32:15.002Z,0.0000
2019-04-29T03:34:18.445Z,0.0000
2019-04-29T03:36:21.887Z,1.0000
2019-04-29T03:38:25.574Z,1.0000
2019-04-29T03:40:29.071Z,2.0000
2019-04-29T03:42:32.490Z,2.0000
2019-04-29T03:44:36.099Z,3.0000
2019-04-29T03:46:39.674Z,6.0000
2019-04-29T03:48:43.030Z,8.0000
2019-04-29T03:50:46.794Z,11.0000
2019-04-29T03:52:49.316Z,18.0000
2019-04-29T03:54:52.863Z,29.0000
2019-04-29T03:56:56.287Z,38.0000
2019-04-29T03:58:59.935Z,49.0000
2019-04-29T04:01:04.160Z,66.0000
2019-04-29T04:03:07.819Z,85.0000
2019-04-29T04:05:11.411Z,109.0000
2019-04-29T04:07:14.838Z,150.0000
2019-04-29T04:09:19.174Z,172.0000
2019-04-29T04:11:22.613Z,195.0000
2019-04-29T04:13:26.059Z,184.0000
2019-04-29T04:15:29.579Z,177.0000
2019-04-29T04:17:33.072Z,174.0000
2019-04-29T04:19:36.512Z,229.0000
2019-04-29T04:21:40.039Z,259.0000
2019-04-29T04:23:43.501Z,279.0000
2019-04-29T04:25:47.645Z,283.0000
2019-04-29T04:27:51.146Z,312.0000
2019-04-29T04:29:54.745Z,373.0000
2019-04-29T04:31:57.284Z,469.0000
2019-04-29T04:33:59.842Z,611.0000
2019-04-29T04:36:03.977Z,848.0000
2019-04-29T04:38:07.877Z,1076.0000
2019-04-29T04:40:12.087Z,1257.0000
2019-04-29T04:42:15.842Z,1472.0000
2019-04-29T04:44:19.400Z,1640.0000
2019-04-29T04:46:22.925Z,1793.0000
2019-04-29T04:48:26.772Z,1948.0000
2019-04-29T04:50:29.294Z,2006.0000
2019-04-29T04:52:32.695Z,2040.0000
2019-04-29T04:54:36.694Z,2127.0000
2019-04-29T04:56:40.879Z,2071.0000
2019-04-29T04:58:44.620Z,2017.0000
2019-04-29T05:00:48.044Z,1889.0000
2019-04-29T05:02:51.451Z,2282.0000
2019-04-29T05:04:54.931Z,2563.0000
2019-04-29T05:06:58.331Z,2932.0000
2019-04-29T05:09:01.838Z,3677.0000
2019-04-29T05:11:05.243Z,3788.0000
2019-04-29T05:13:08.679Z,4682.0000
2019-04-29T05:15:12.249Z,5491.0000
2019-04-29T05:17:15.652Z,5723.0000
2019-04-29T05:19:19.048Z,5721.0000
2019-04-29T05:21:22.956Z,5760.0000
2019-04-29T05:23:26.366Z,5843.0000
2019-04-29T05:25:28.767Z,5738.0000
2019-04-29T05:27:32.790Z,5098.0000
2019-04-29T05:29:36.577Z,4375.0000
2019-04-29T05:31:40.039Z,3747.0000
2019-04-29T05:33:43.128Z,3498.0000
2019-04-29T05:35:47.421Z,3651.0000
2019-04-29T05:37:51.817Z,4402.0000
2019-04-29T05:39:55.233Z,4925.0000
2019-04-29T05:41:58.669Z,5987.0000
2019-04-29T05:44:02.924Z,7399.0000
2019-04-29T05:46:07.675Z,8790.0000
2019-04-29T05:48:11.921Z,9193.0000
2019-04-29T05:50:16.856Z,9883.0000
2019-04-29T05:52:22.269Z,10023.0000
2019-04-29T05:54:26.938Z,10191.0000
2019-04-29T05:56:34.757Z,10501.0000
2019-04-29T05:58:39.645Z,10933.0000
2019-04-29T06:00:43.979Z,11878.0000
2019-04-29T06:02:47.444Z,12485.0000
2019-04-29T06:04:52.421Z,12732.0000
2019-04-29T06:06:57.975Z,12790.0000
2019-04-29T06:09:02.321Z,13416.0000
2019-04-29T06:11:06.416Z,16702.0000
2019-04-29T06:13:09.895Z,20168.0000
2019-04-29T06:15:13.299Z,21112.0000
2019-04-29T06:17:16.836Z,21232.0000
2019-04-29T06:19:19.283Z,19512.0000
2019-04-29T06:21:23.821Z,13436.0000
2019-04-29T06:23:28.141Z,11080.0000
2019-04-29T06:25:32.569Z,10722.0000
2019-04-29T06:27:36.665Z,10974.0000
2019-04-29T06:29:40.202Z,12958.0000
2019-04-29T06:31:43.663Z,14234.0000
2019-04-29T06:33:48.129Z,15305.0000
2019-04-29T06:35:52.789Z,17062.0000
2019-04-29T06:37:57.326Z,17158.0000
2019-04-29T06:40:01.979Z,17374.0000
2019-04-29T06:42:06.257Z,17448.0000
2019-04-29T06:44:16.108Z,17500.0000
2019-04-29T06:46:18.742Z,16981.0000
2019-04-29T06:48:23.349Z,16649.0000
2019-04-29T06:50:27.939Z,18680.0000
2019-04-29T06:52:32.044Z,19984.0000
2019-04-29T06:54:35.475Z,20936.0000
2019-04-29T06:56:39.689Z,21592.0000
2019-04-29T06:58:43.947Z,21472.0000
2019-04-29T07:00:50.716Z,20656.0000
2019-04-29T07:02:55.070Z,21904.0000
2019-04-29T07:04:59.348Z,23504.0000
2019-04-29T07:07:02.764Z,25592.0000
2019-04-29T07:09:06.192Z,25280.0000
2019-04-29T07:11:11.146Z,26744.0000
2019-04-29T07:13:17.933Z,26616.0000
2019-04-29T07:15:26.341Z,24328.0000
2019-04-29T07:17:29.895Z,24192.0000
2019-04-29T07:19:33.798Z,23576.0000
2019-04-29T07:21:41.939Z,24128.0000
2019-04-29T07:23:46.939Z,26392.0000
2019-04-29T07:25:50.359Z,28408.0000
2019-04-29T07:27:54.707Z,33624.0000
2019-04-29T07:30:01.816Z,37760.0000
2019-04-29T07:32:12.071Z,35856.0000
2019-04-29T07:34:20.134Z,38320.0000
2019-04-29T07:36:23.923Z,38272.0000
2019-04-29T07:38:40.586Z,36704.0000
2019-04-29T07:40:38.742Z,28040.0000
2019-04-29T07:42:48.130Z,20048.0000
2019-04-29T07:44:54.145Z,17197.0000
2019-04-29T07:47:02.194Z,14397.0000
2019-04-29T07:49:08.214Z,14210.0000
2019-04-29T07:51:14.674Z,14566.0000
2019-04-29T07:53:21.853Z,15441.0000
2019-04-29T07:55:30.778Z,17212.0000
2019-04-29T07:57:35.924Z,17055.0000
2019-04-29T07:59:40.140Z,16966.0000
2019-04-29T08:01:44.462Z,16777.0000
2019-04-29T08:03:47.880Z,15480.0000
2019-04-29T08:05:52.021Z,15036.0000
2019-04-29T08:07:56.476Z,15010.0000
2019-04-29T08:09:59.942Z,13850.0000
2019-04-29T08:12:04.442Z,14198.0000
2019-04-29T08:14:09.365Z,16006.0000
2019-04-29T08:16:17.134Z,17824.0000
2019-04-29T08:18:22.858Z,20856.0000
2019-04-29T08:20:27.157Z,23184.0000
2019-04-29T08:22:30.504Z,24232.0000
2019-04-29T08:24:37.339Z,25240.0000
2019-04-29T08:26:47.081Z,26584.0000
2019-04-29T08:28:53.063Z,24432.0000
2019-04-29T08:31:00.579Z,19848.0000
2019-04-29T08:35:19.959Z,20216.0000
2019-04-29T08:37:25.671Z,20584.0000
2019-04-29T08:39:31.210Z,20216.0000
2019-04-29T08:41:34.882Z,20216.0000
2019-04-29T08:45:53.936Z,41032.0000
2019-04-29T08:47:57.347Z,36192.0000
2019-04-29T08:50:01.027Z,35304.0000
2019-04-29T08:52:05.725Z,36680.0000
2019-04-29T08:54:11.055Z,43552.0000
2019-04-29T08:56:14.496Z,43240.0000
2019-04-29T08:58:21.847Z,65376.0000
2019-04-29T09:00:26.626Z,65535.0000
2019-04-29T09:02:34.835Z,59728.0000
2019-04-29T09:04:52.904Z,47664.0000
2019-04-29T09:06:50.288Z,58216.0000
2019-04-29T09:08:59.592Z,65535.0000
2019-04-29T09:11:08.244Z,65535.0000
2019-04-29T09:17:42.474Z,44632.0000
2019-04-29T09:19:46.346Z,45384.0000
2019-04-29T09:21:49.755Z,37048.0000
2019-04-29T09:26:14.866Z,35000.0000
2019-04-29T09:28:22.760Z,31976.0000
2019-04-29T09:30:29.240Z,31296.0000
2019-04-29T09:32:38.556Z,28216.0000
2019-04-29T09:34:44.293Z,24320.0000
2019-04-29T09:36:48.371Z,22992.0000
2019-04-29T09:38:54.302Z,25568.0000
2019-04-29T09:41:01.268Z,27976.0000
2019-04-29T09:45:29.021Z,32624.0000
2019-04-29T09:47:34.618Z,37088.0000
2019-04-29T09:49:39.057Z,43352.0000
2019-04-29T09:51:46.023Z,65535.0000
2019-04-29T09:53:50.293Z,64312.0000
2019-04-29T09:55:54.391Z,62792.0000
2019-04-29T09:57:59.282Z,47616.0000
2019-04-29T10:00:05.346Z,57008.0000
2019-04-29T10:04:28.401Z,36512.0000
2019-04-29T10:06:35.864Z,33848.0000
2019-04-29T10:08:39.330Z,35040.0000
2019-04-29T10:10:42.762Z,36896.0000
2019-04-29T10:12:53.928Z,38928.0000
2019-04-29T10:19:30.243Z,35872.0000
2019-04-29T10:21:34.775Z,39856.0000
2019-04-29T10:25:51.446Z,49888.0000
2019-04-29T10:27:56.653Z,45808.0000
2019-04-29T10:30:01.508Z,51816.0000
2019-04-29T10:32:28.225Z,52424.0000
2019-04-29T10:41:19.152Z,37360.0000
2019-04-29T10:43:24.209Z,38864.0000
2019-04-29T10:47:45.432Z,47288.0000
2019-04-29T10:49:49.915Z,48784.0000
2019-04-29T10:51:53.383Z,48416.0000
2019-04-29T10:53:56.884Z,47344.0000
2019-04-29T10:56:05.370Z,47264.0000
2019-04-29T10:58:09.400Z,44904.0000
2019-04-29T11:00:17.059Z,41328.0000
2019-04-29T11:02:27.128Z,39776.0000
2019-04-29T11:04:31.703Z,39256.0000
2019-04-29T11:06:39.165Z,40536.0000
2019-04-29T11:08:43.253Z,41104.0000
2019-04-29T11:10:47.421Z,41392.0000
2019-04-29T11:12:52.374Z,42976.0000
2019-04-29T11:14:57.210Z,45424.0000
2019-04-29T11:17:01.816Z,51040.0000
2019-04-29T11:19:06.593Z,56456.0000
2019-04-29T11:21:11.731Z,56488.0000
2019-04-29T11:23:18.012Z,57464.0000
2019-04-29T11:25:26.252Z,58720.0000
2019-04-29T11:27:30.423Z,61064.0000
2019-04-29T11:29:35.886Z,61504.0000
2019-04-29T11:31:49.114Z,64080.0000
2019-04-29T11:33:54.332Z,52784.0000
2019-04-29T11:35:59.099Z,43904.0000
2019-04-29T11:38:08.690Z,42880.0000
2019-04-29T11:40:13.390Z,43208.0000
2019-04-29T11:42:21.619Z,42088.0000
2019-04-29T11:44:26.639Z,35784.0000
2019-04-29T11:46:32.186Z,34464.0000
2019-04-29T11:48:35.601Z,34712.0000
2019-04-29T11:50:39.721Z,32200.0000
2019-04-29T11:52:45.539Z,27120.0000
2019-04-29T11:54:49.709Z,23312.0000
2019-04-29T11:56:55.447Z,19984.0000
2019-04-29T11:58:59.562Z,18480.0000
2019-04-29T12:01:04.072Z,17376.0000
2019-04-29T12:03:14.466Z,17472.0000
2019-04-29T12:05:19.738Z,19312.0000
2019-04-29T12:07:32.138Z,21944.0000
2019-04-29T12:09:33.513Z,24760.0000
2019-04-29T12:11:37.327Z,25000.0000
2019-04-29T12:13:40.745Z,23248.0000
2019-04-29T12:15:45.030Z,21032.0000
2019-04-29T12:17:53.348Z,18960.0000
2019-04-29T12:19:57.375Z,18432.0000
2019-04-29T12:22:04.692Z,19592.0000
2019-04-29T12:24:09.883Z,22864.0000
2019-04-29T12:26:18.388Z,26640.0000
2019-04-29T12:28:21.943Z,28704.0000
2019-04-29T12:30:29.792Z,27192.0000
2019-04-29T12:32:38.230Z,25432.0000
2019-04-29T12:34:42.475Z,22456.0000
2019-04-29T12:36:56.326Z,21064.0000
2019-04-29T12:38:56.789Z,20208.0000
2019-04-29T12:41:03.773Z,19336.0000
2019-04-29T12:43:16.194Z,18880.0000
2019-04-29T12:45:20.646Z,18696.0000
2019-04-29T12:47:27.748Z,18272.0000
2019-04-29T12:49:33.225Z,17624.0000
2019-04-29T12:51:42.322Z,15683.0000
2019-04-29T12:53:45.504Z,14420.0000
2019-04-29T12:55:53.186Z,13546.0000
2019-04-29T12:57:56.989Z,12780.0000
2019-04-29T13:00:01.401Z,12625.0000
2019-04-29T13:02:05.599Z,12660.0000
2019-04-29T13:04:10.713Z,12649.0000
2019-04-29T13:06:23.514Z,12896.0000
2019-04-29T13:08:27.438Z,13698.0000
2019-04-29T13:10:30.886Z,14934.0000
2019-04-29T13:12:35.398Z,15578.0000
2019-04-29T13:14:39.538Z,14755.0000
2019-04-29T13:16:44.270Z,14801.0000
2019-04-29T13:18:48.882Z,14207.0000
2019-04-29T13:21:09.528Z,13577.0000
2019-04-29T13:23:17.491Z,13199.0000
2019-04-29T13:25:15.553Z,13055.0000
2019-04-29T13:27:29.084Z,13324.0000
2019-04-29T13:29:36.159Z,13615.0000
2019-04-29T13:31:41.931Z,13666.0000
2019-04-29T13:33:45.964Z,13919.0000
2019-04-29T13:35:54.488Z,14513.0000
2019-04-29T13:37:58.695Z,14683.0000
2019-04-29T13:40:02.160Z,15348.0000
2019-04-29T13:42:09.315Z,15963.0000
2019-04-29T13:44:19.556Z,15761.0000
2019-04-29T13:46:25.143Z,16172.0000
2019-04-29T13:48:30.093Z,16629.0000
2019-04-29T13:50:39.495Z,18240.0000
2019-04-29T13:52:42.998Z,21088.0000
2019-04-29T13:54:47.215Z,22752.0000
2019-04-29T13:56:56.633Z,23680.0000
2019-04-29T13:59:09.724Z,24536.0000
2019-04-29T14:01:22.465Z,23992.0000
2019-04-29T14:03:20.423Z,22248.0000
2019-04-29T14:05:24.540Z,22008.0000
2019-04-29T14:07:28.755Z,18256.0000
2019-04-29T14:09:35.054Z,16896.0000
2019-04-29T14:11:42.611Z,17848.0000
2019-04-29T14:13:48.474Z,20944.0000
2019-04-29T14:15:52.826Z,19800.0000
2019-04-29T14:17:56.331Z,18192.0000
2019-04-29T14:19:59.763Z,16908.0000
2019-04-29T14:22:03.191Z,16760.0000
2019-04-29T14:24:07.115Z,16817.0000
2019-04-29T14:26:10.539Z,17448.0000
2019-04-29T14:28:14.063Z,17808.0000
2019-04-29T14:30:20.746Z,17664.0000
2019-04-29T14:32:34.497Z,18904.0000
2019-04-29T14:34:36.765Z,19816.0000
2019-04-29T14:36:40.910Z,19904.0000
2019-04-29T14:38:45.131Z,20080.0000
2019-04-29T14:40:49.408Z,20656.0000
2019-04-29T14:42:57.810Z,21600.0000
2019-04-29T14:45:02.123Z,22032.0000
2019-04-29T14:47:05.704Z,20936.0000
2019-04-29T14:49:09.516Z,19560.0000
2019-04-29T14:51:14.033Z,17800.0000
2019-04-29T14:53:19.460Z,14383.0000
2019-04-29T14:55:27.353Z,12905.0000
2019-04-29T14:57:31.382Z,11223.0000
2019-04-29T14:59:35.327Z,8499.0000
2019-04-29T15:01:38.901Z,6866.0000
2019-04-29T15:03:46.764Z,5976.0000
2019-04-29T15:05:51.027Z,5196.0000
2019-04-29T15:07:54.978Z,4553.0000
2019-04-29T15:09:58.785Z,4839.0000
2019-04-29T15:12:03.783Z,5668.0000
2019-04-29T15:14:09.242Z,5864.0000
2019-04-29T15:16:13.957Z,5544.0000
2019-04-29T15:18:29.376Z,5062.0000
2019-04-29T15:20:29.965Z,4296.0000
2019-04-29T15:22:36.415Z,3843.0000
2019-04-29T15:24:40.913Z,4069.0000
2019-04-29T15:26:45.413Z,4860.0000
2019-04-29T15:28:49.416Z,5299.0000
2019-04-29T15:30:52.898Z,5406.0000
2019-04-29T15:32:57.822Z,5340.0000
2019-04-29T15:35:03.011Z,5843.0000
2019-04-29T15:37:05.822Z,6787.0000
2019-04-29T15:39:11.978Z,7430.0000
2019-04-29T15:41:17.487Z,7632.0000
2019-04-29T15:43:24.545Z,7826.0000
2019-04-29T15:45:32.384Z,8375.0000
2019-04-29T15:47:41.606Z,9592.0000
2019-04-29T15:49:46.992Z,10532.0000
2019-04-29T15:51:51.045Z,11143.0000
2019-04-29T15:53:55.435Z,11353.0000
2019-04-29T15:56:06.686Z,11178.0000
2019-04-29T15:58:08.138Z,11498.0000
2019-04-29T16:00:21.375Z,12344.0000
2019-04-29T16:02:21.184Z,13588.0000
2019-04-29T16:04:27.750Z,13956.0000
2019-04-29T16:06:39.537Z,13814.0000
2019-04-29T16:08:42.781Z,13584.0000
2019-04-29T16:10:51.348Z,13720.0000
2019-04-29T16:12:56.050Z,14273.0000
2019-04-29T16:15:00.252Z,14491.0000
2019-04-29T16:17:04.585Z,14384.0000
2019-04-29T16:19:10.292Z,13991.0000
2019-04-29T16:21:13.994Z,13391.0000
2019-04-29T16:23:19.042Z,12403.0000
2019-04-29T16:25:23.520Z,11531.0000
2019-04-29T16:27:27.570Z,10678.0000
2019-04-29T16:29:32.036Z,9932.0000
2019-04-29T16:31:35.999Z,10263.0000
2019-04-29T16:33:39.445Z,10592.0000
2019-04-29T16:35:43.579Z,10473.0000
2019-04-29T16:37:47.108Z,10314.0000
2019-04-29T16:39:52.895Z,10798.0000
2019-04-29T16:42:01.519Z,11483.0000
2019-04-29T16:44:05.948Z,11920.0000
2019-04-29T16:46:09.951Z,11941.0000
2019-04-29T16:48:14.056Z,12082.0000
2019-04-29T16:50:17.494Z,12009.0000
2019-04-29T16:52:21.647Z,11501.0000
2019-04-29T16:54:28.383Z,10292.0000
2019-04-29T16:56:33.917Z,9131.0000
2019-04-29T16:58:38.965Z,8292.0000
2019-04-29T17:00:46.568Z,7780.0000
2019-04-29T17:02:52.396Z,7289.0000
2019-04-29T17:04:56.708Z,6813.0000
2019-04-29T17:07:12.497Z,6071.0000
2019-04-29T17:09:09.305Z,5254.0000
2019-04-29T17:11:17.577Z,4547.0000
2019-04-29T17:13:23.960Z,4058.0000
2019-04-29T17:15:28.122Z,3743.0000
2019-04-29T17:17:32.246Z,3541.0000
2019-04-29T17:19:35.994Z,3472.0000
2019-04-29T17:21:39.465Z,3223.0000
2019-04-29T17:23:42.879Z,2921.0000
2019-04-29T17:25:46.287Z,2409.0000
2019-04-29T17:27:49.689Z,2098.0000
2019-04-29T17:29:55.534Z,1779.0000
2019-04-29T17:32:03.385Z,1525.0000
2019-04-29T17:34:08.141Z,1366.0000
2019-04-29T17:36:12.682Z,1308.0000
2019-04-29T17:38:16.437Z,1163.0000
2019-04-29T17:40:20.007Z,1142.0000
2019-04-29T17:42:23.476Z,1176.0000
2019-04-29T17:44:26.908Z,1289.0000
2019-04-29T17:46:31.165Z,1371.0000
2019-04-29T17:48:34.609Z,1409.0000
2019-04-29T17:50:46.296Z,1403.0000
2019-04-29T17:52:47.928Z,1411.0000
2019-04-29T17:54:51.718Z,1376.0000
2019-04-29T17:57:15.619Z,1306.0000
2019-04-29T17:59:06.015Z,1138.0000
2019-04-29T18:01:09.380Z,1013.0000
2019-04-29T18:03:15.185Z,883.0000
2019-04-29T18:05:19.393Z,733.0000
2019-04-29T18:07:28.259Z,665.0000
2019-04-29T18:09:32.381Z,577.0000
2019-04-29T18:11:49.590Z,505.0000
2019-04-29T18:13:45.870Z,459.0000
2019-04-29T18:16:00.821Z,422.0000
2019-04-29T18:18:00.324Z,384.0000
2019-04-29T18:20:13.457Z,336.0000
2019-04-29T18:22:16.838Z,259.0000
2019-04-29T18:24:21.073Z,194.0000
2019-04-29T18:26:25.803Z,129.0000
2019-04-29T18:28:30.086Z,78.0000
2019-04-29T18:30:37.780Z,48.0000
2019-04-29T18:32:46.617Z,35.0000
2019-04-29T18:34:50.998Z,33.0000
2019-04-29T18:37:00.224Z,31.0000
2019-04-29T18:39:06.020Z,27.0000
2019-04-29T18:41:09.532Z,26.0000
2019-04-29T18:43:15.002Z,23.0000
2019-04-29T18:45:19.310Z,19.0000
2019-04-29T18:47:27.598Z,13.0000
2019-04-29T18:49:33.582Z,9.0000
2019-04-29T18:51:37.587Z,8.0000
2019-04-29T18:53:41.813Z,6.0000
2019-04-29T18:55:46.349Z,3.0000
2019-04-29T18:57:50.357Z,3.0000
2019-04-29T18:59:55.007Z,1.0000
2019-04-29T19:02:00.914Z,1.0000
2019-04-29T19:04:10.163Z,1.0000
2019-04-29T19:06:17.147Z,1.0000
2019-04-29T19:08:23.389Z,1.0000
2019-04-29T19:10:34.538Z,0.0000
2019-04-29T19:12:39.364Z,0.0000
2019-04-29T19:14:47.524Z,0.0000
2019-04-29T19:16:52.795Z,0.0000
2019-04-29T19:19:01.884Z,0.0000
2019-04-29T19:21:06.892Z,0.0000
2019-04-29T19:23:10.970Z,0.0000
2019-04-29T19:25:15.478Z,0.0000
2019-04-29T19:27:19.844Z,0.0000
2019-04-29T19:29:23.949Z,0.0000
2019-04-29T19:31:27.007Z,0.0000
2019-04-29T19:33:37.632Z,0.0000
2019-04-29T19:35:40.725Z,0.0000
2019-04-29T19:37:45.385Z,0.0000
2019-04-29T19:39:52.462Z,0.0000
2019-04-29T19:41:58.514Z,0.0000
2019-04-29T19:44:02.507Z,0.0000
2019-04-29T19:46:06.638Z,0.0000
2019-04-29T19:48:10.856Z,0.0000
2019-04-29T19:50:18.251Z,0.0000
2019-04-29T19:52:28.701Z,0.0000
2019-04-29T19:54:33.252Z,0.0000
2019-04-29T19:56:37.259Z,0.0000
2019-04-29T19:58:41.730Z,0.0000
2019-04-29T20:00:47.216Z,0.0000
2019-04-29T20:02:52.151Z,0.0000
2019-04-29T20:04:58.876Z,0.0000
2019-04-29T20:07:08.716Z,0.0000
2019-04-29T20:09:17.285Z,0.0000
2019-04-29T20:11:31.676Z,0.0000
2019-04-29T20:13:31.695Z,0.0000
2019-04-29T20:15:38.010Z,0.0000
2019-04-29T20:17:47.033Z,0.0000
2019-04-29T20:19:58.700Z,0.0000
2019-04-29T20:22:05.587Z,0.0000
2019-04-29T20:24:15.088Z,0.0000
2019-04-29T20:26:23.786Z,0.0000
2019-04-29T20:28:27.510Z,0.0000
2019-04-29T20:30:34.237Z,0.0000
2019-04-29T20:32:38.780Z,0.0000
2019-04-29T20:34:42.921Z,0.0000
2019-04-29T20:36:47.916Z,0.0000
2019-04-29T20:38:52.148Z,0.0000
2019-04-29T20:40:56.359Z,0.0000
2019-04-29T20:43:00.501Z,0.0000
2019-04-29T20:45:05.400Z,0.0000
2019-04-29T20:47:19.764Z,0.0000
2019-04-29T20:49:18.242Z,0.0000
2019-04-29T20:51:23.284Z,0.0000
2019-04-29T20:53:37.984Z,0.0000
2019-04-29T20:55:41.345Z,0.0000
2019-04-29T20:57:47.842Z,0.0000
2019-04-29T20:59:55.084Z,0.0000
2019-04-29T21:02:11.154Z,0.0000
2019-04-29T21:04:07.458Z,0.0000
2019-04-29T21:06:11.513Z,0.0000
2019-04-29T21:08:18.909Z,0.0000
2019-04-29T21:10:22.802Z,0.0000
2019-04-29T21:12:29.756Z,0.0000
2019-04-29T21:14:37.953Z,0.0000
2019-04-29T21:16:41.954Z,0.0000
2019-04-29T21:18:52.633Z,0.0000
2019-04-29T21:20:55.149Z,0.0000
2019-04-29T21:23:00.811Z,0.0000
2019-04-29T21:25:05.362Z,0.0000
2019-04-29T21:27:08.997Z,0.0000
2019-04-29T21:29:15.848Z,0.0000
2019-04-29T21:31:22.890Z,0.0000
2019-04-29T21:33:26.986Z,0.0000
2019-04-29T21:35:31.335Z,0.0000
2019-04-29T21:37:35.801Z,0.0000
2019-04-29T21:39:39.991Z,0.0000
2019-04-29T21:41:45.765Z,0.0000
2019-04-29T21:43:53.392Z,0.0000
2019-04-29T21:45:59.479Z,0.0000
2019-04-29T21:48:03.699Z,0.0000
2019-04-29T21:50:08.054Z,0.0000
2019-04-29T21:52:12.156Z,0.0000
2019-04-29T21:54:16.625Z,0.0000
2019-04-29T21:56:20.210Z,0.0000
2019-04-29T21:58:24.478Z,0.0000
2019-04-29T22:00:29.095Z,0.0000
2019-04-29T22:02:33.371Z,0.0000
2019-04-29T22:04:38.476Z,0.0000
2019-04-29T22:06:42.632Z,0.0000
2019-04-29T22:08:46.759Z,0.0000
2019-04-29T22:10:50.224Z,0.0000
2019-04-29T22:12:58.466Z,0.0000
2019-04-29T22:15:03.347Z,0.0000
2019-04-29T22:17:07.388Z,0.0000
2019-04-29T22:19:11.458Z,0.0000
2019-04-29T22:21:22.143Z,0.0000
2019-04-29T22:23:25.288Z,0.0000
2019-04-29T22:25:29.704Z,0.0000
2019-04-29T22:27:34.183Z,0.0000
2019-04-29T22:29:42.970Z,0.0000
2019-04-29T22:31:47.012Z,0.0000
2019-04-29T22:33:51.124Z,0.0000
2019-04-29T22:35:55.545Z,0.0000
2019-04-29T22:37:58.989Z,0.0000
2019-04-29T22:40:04.471Z,0.0000
2019-04-29T22:42:08.849Z,0.0000
2019-04-29T22:44:15.141Z,0.0000
2019-04-29T22:46:21.892Z,0.0000
2019-04-29T22:48:26.118Z,0.0000
2019-04-29T22:50:29.513Z,0.0000
2019-04-29T22:52:32.935Z,0.0000
2019-04-29T22:54:37.937Z,0.0000
2019-04-29T22:56:45.604Z,0.0000
2019-04-29T22:58:50.055Z,0.0000
2019-04-29T23:00:54.093Z,0.0000
2019-04-29T23:03:02.227Z,0.0000
2019-04-29T23:05:07.612Z,0.0000
2019-04-29T23:07:10.909Z,0.0000
2019-04-29T23:09:15.047Z,0.0000
2019-04-29T23:11:19.142Z,0.0000
2019-04-29T23:13:22.386Z,0.0000
2019-04-29T23:15:26.539Z,0.0000
2019-04-29T23:17:30.559Z,0.0000
2019-04-29T23:19:34.115Z,0.0000
2019-04-29T23:21:43.292Z,0.0000
2019-04-29T23:23:47.741Z,0.0000
2019-04-29T23:25:52.128Z,0.0000
2019-04-29T23:27:56.374Z,0.0000
2019-04-29T23:30:00.878Z,0.0000
2019-04-29T23:32:08.162Z,0.0000
2019-04-29T23:34:13.026Z,0.0000
2019-04-29T23:36:16.433Z,0.0000
2019-04-29T23:38:20.733Z,0.0000
2019-04-29T23:40:24.938Z,0.0000
2019-04-29T23:42:29.335Z,0.0000
2019-04-29T23:44:33.387Z,0.0000
2019-04-29T23:46:37.544Z,0.0000
2019-04-29T23:48:41.595Z,0.0000
2019-04-29T23:50:45.479Z,0.0000
2019-04-29T23:52:51.839Z,0.0000
2019-04-29T23:54:56.275Z,0.0000
2019-04-29T23:57:00.679Z,0.0000
2019-04-29T23:59:05.565Z,0.0000
